Aeroporto :
LOGIN :

Iscrizione | Disclaimer

   EN    FR    IT 

 










Sommario :    VFR   VFR Marginale   IFR   IFR Intensivo   IFR Molto Intensivo
Visibilità : 
Base nubi : 
>= 8 km
>= 3000ft
5 / 8 km
1000 / 3000 ft
1500m / 5 km
500 / 1000 ft
800 / 1500m
200 / 500 ft
< 800m
< 200 ft
Simboli :   Temporali  Nebbia  Neve Forte  Precipitazioni Forti  Vento > 20 kt
SIGMETs :   Varie  Temporali  Ghiacco  Turbolenza  Onda orograficha  Ceneri Vulcaniche






- Altitudine del aeroporto : 2395 ft
- Codice IATA : AMM


OJAI - Queen Alia Int.

ULTIMO METAR :
  • 252000Z 29005KT 6000 NSC 15/05 Q1018 NOSIG

METARs OBSOLETI :
  • 251900Z 28005KT 6000 NSC 15/05 Q1018 NOSIG
  • 251800Z 25005KT 6000 NSC 17/06 Q1018 NOSIG
  • 251700Z 25006KT 6000 NSC 19/06 Q1018 NOSIG

TAF TAF OJAI
Valido dal 25 a 18 ore il 27 a 00 ore UTC


251712Z 2518/2624 25006KT 6000 NSC
TEMPO 2602/2605 27005KT 3000 BR
FIR OJAC / Asia



MetMap, La meteo Aeronautica in un colpo d'occhio ! - Copyright ORBIFLY Dicembre 2007 - Disclaimer

ORBIFLY MET'MAP TEAM :

Programmazione e sviluppo : Alexandra Zaïnal
Concezione : Baudouin d'Aumeries
Aiuto per la programmazione : Marc-Olivier Méhu
Supporto tecnico e logistico : Manuel Goepfert
Aiuto per la traduzione : Arnaldo La Scala

Contatto : metmap@orbifly.com




FONTI E CREDITI :

   NOAA